Time;durP1;ratioP1;P1;durP2;ratioP2;P2;SDS_P1;SDS_P2;PMS_P1;PMS_P2;Temp;Humidity;BMP_temperature;BMP_pressure;BME280_temperature;BME280_humidity;BME280_pressure;Samples;Min_cycle;Max_cycle;Signal;HPM_P1;HPM_P2
2022/03/18 00:01:06;;;;;;;1.83;1.30;;;;;;;;;;4213385;28;20170;-36
2022/03/18 00:03:07;;;;;;;2.03;1.15;;;;;;;;;;4213072;28;20094;-36
2022/03/18 00:05:08;;;;;;;1.40;1.20;;;;;;;;;;4213589;28;20170;-37
2022/03/18 00:07:09;;;;;;;1.60;1.35;;;;;;;;;;4213297;28;20117;-36
2022/03/18 00:09:10;;;;;;;1.33;1.17;;;;;;;;;;4213436;28;20047;-35
2022/03/18 00:11:11;;;;;;;2.08;1.55;;;;;;;;;;4213205;28;20101;-36
2022/03/18 00:13:12;;;;;;;1.83;1.40;;;;;;;;;;4213130;28;20404;-36
2022/03/18 00:15:13;;;;;;;2.05;1.23;;;;;;;;;;4213382;28;20059;-36
2022/03/18 00:17:14;;;;;;;1.88;1.30;;;;;;;;;;4212659;28;20051;-36
2022/03/18 00:19:15;;;;;;;1.90;1.30;;;;;;;;;;4213210;28;20104;-36
2022/03/18 00:21:17;;;;;;;1.80;1.30;;;;;;;;;;4213199;28;20497;-36
2022/03/18 00:23:18;;;;;;;1.60;1.30;;;;;;;;;;4213044;28;20039;-36
2022/03/18 00:25:18;;;;;;;1.73;1.50;;;;;;;;;;4213172;28;20087;-36
2022/03/18 00:27:19;;;;;;;1.42;1.15;;;;;;;;;;4212950;28;20087;-36
2022/03/18 00:29:20;;;;;;;1.90;1.58;;;;;;;;;;4213183;28;20091;-36
2022/03/18 00:31:21;;;;;;;1.33;1.23;;;;;;;;;;4212993;28;20097;-35
2022/03/18 00:33:22;;;;;;;1.45;1.02;;;;;;;;;;4212618;28;20090;-36
2022/03/18 00:35:24;;;;;;;1.50;1.10;;;;;;;;;;4213041;28;20109;-36
2022/03/18 00:37:25;;;;;;;2.42;1.33;;;;;;;;;;4212931;28;20105;-36
2022/03/18 00:39:25;;;;;;;1.77;1.15;;;;;;;;;;4212899;28;20502;-36
2022/03/18 00:41:27;;;;;;;2.05;1.10;;;;;;;;;;4213055;28;20079;-36
2022/03/18 00:43:28;;;;;;;1.67;1.17;;;;;;;;;;4212769;28;20071;-36
2022/03/18 00:45:29;;;;;;;2.05;1.35;;;;;;;;;;4212856;28;20441;-36
2022/03/18 00:52:14;;;;;;;1.25;1.08;;;;;;;;;;4211648;28;20048;-36
2022/03/18 00:54:14;;;;;;;1.52;1.10;;;;;;;;;;4212680;28;20086;-36
2022/03/18 00:56:15;;;;;;;1.30;1.20;;;;;;;;;;4212765;28;20091;-36
2022/03/18 00:58:16;;;;;;;2.00;1.35;;;;;;;;;;4212509;28;20354;-36
2022/03/18 01:00:17;;;;;;;2.13;1.42;;;;;;;;;;4212736;28;20044;-35
2022/03/18 01:02:18;;;;;;;1.70;1.40;;;;;;;;;;4212410;28;20275;-36
2022/03/18 01:04:20;;;;;;;1.95;1.25;;;;;;;;;;4213036;28;20090;-36
2022/03/18 01:06:21;;;;;;;1.83;1.35;;;;;;;;;;4211525;28;20044;-36
2022/03/18 01:08:22;;;;;;;2.53;1.38;;;;;;;;;;4212600;28;20052;-36
2022/03/18 01:10:23;;;;;;;1.98;1.30;;;;;;;;;;4214820;28;20055;-36
2022/03/18 01:12:24;;;;;;;1.65;1.27;;;;;;;;;;4215970;28;20457;-36
2022/03/18 01:14:26;;;;;;;1.40;1.23;;;;;;;;;;4216009;28;20056;-36
2022/03/18 01:16:27;;;;;;;2.20;1.40;;;;;;;;;;4216245;28;20048;-36
2022/03/18 01:18:28;;;;;;;1.77;1.40;;;;;;;;;;4215411;28;20380;-36
2022/03/18 01:20:29;;;;;;;2.38;1.13;;;;;;;;;;4216041;28;20109;-35
2022/03/18 01:22:30;;;;;;;3.33;1.20;;;;;;;;;;4215807;28;20048;-36
2022/03/18 01:24:31;;;;;;;1.23;1.10;;;;;;;;;;4216051;28;20105;-36
2022/03/18 01:26:32;;;;;;;1.88;1.30;;;;;;;;;;4216327;28;20052;-36
2022/03/18 01:28:33;;;;;;;1.48;1.38;;;;;;;;;;4215844;28;20142;-36
2022/03/18 01:30:34;;;;;;;1.50;1.33;;;;;;;;;;4215982;28;20242;-36
2022/03/18 01:32:35;;;;;;;1.17;1.02;;;;;;;;;;4215365;28;20097;-36
2022/03/18 01:34:36;;;;;;;1.70;1.35;;;;;;;;;;4215953;28;20051;-36
2022/03/18 01:36:37;;;;;;;2.28;1.23;;;;;;;;;;4215690;28;20112;-36
2022/03/18 01:38:38;;;;;;;1.42;1.00;;;;;;;;;;4215802;28;20086;-36
2022/03/18 01:40:39;;;;;;;2.47;1.40;;;;;;;;;;4215810;28;20110;-36
2022/03/18 01:42:40;;;;;;;1.65;1.05;;;;;;;;;;4215743;28;20090;-36
2022/03/18 01:44:41;;;;;;;1.73;1.35;;;;;;;;;;4215570;28;20048;-36
2022/03/18 01:46:42;;;;;;;1.55;1.30;;;;;;;;;;4215661;28;20044;-36
2022/03/18 01:48:44;;;;;;;1.33;1.05;;;;;;;;;;4214088;28;20549;-36
2022/03/18 01:50:45;;;;;;;1.52;1.20;;;;;;;;;;4215566;28;20051;-36
2022/03/18 01:52:46;;;;;;;1.40;1.10;;;;;;;;;;4215488;28;20495;-36
2022/03/18 01:54:47;;;;;;;1.45;1.00;;;;;;;;;;4215437;28;20059;-36
2022/03/18 01:56:49;;;;;;;1.50;1.17;;;;;;;;;;4215374;28;20453;-36
2022/03/18 01:58:50;;;;;;;1.48;1.25;;;;;;;;;;4213871;28;20043;-36
2022/03/18 02:00:50;;;;;;;1.48;1.20;;;;;;;;;;4215462;28;20090;-36
2022/03/18 02:02:52;;;;;;;1.55;1.20;;;;;;;;;;4214930;28;20186;-36
2022/03/18 02:04:52;;;;;;;1.67;1.30;;;;;;;;;;4215486;28;20055;-36
2022/03/18 02:06:54;;;;;;;2.15;1.27;;;;;;;;;;4215366;28;20083;-36
2022/03/18 02:08:55;;;;;;;2.45;1.30;;;;;;;;;;4214255;28;20052;-36
2022/03/18 02:10:56;;;;;;;1.65;1.17;;;;;;;;;;4214931;28;20090;-35
2022/03/18 02:12:57;;;;;;;1.67;1.17;;;;;;;;;;4213754;28;20085;-35
2022/03/18 02:14:58;;;;;;;1.23;1.10;;;;;;;;;;4215262;28;20548;-36
2022/03/18 02:17:00;;;;;;;1.40;1.25;;;;;;;;;;4214782;28;20048;-36
2022/03/18 02:19:01;;;;;;;1.63;1.30;;;;;;;;;;4215043;28;20048;-36
2022/03/18 02:21:02;;;;;;;1.33;1.23;;;;;;;;;;4214910;28;20181;-36
2022/03/18 02:23:04;;;;;;;1.75;1.30;;;;;;;;;;4214907;28;20094;-36
2022/03/18 02:25:09;;;;;;;1.85;1.50;;;;;;;;;;4214976;28;20384;-37
2022/03/18 02:27:10;;;;;;;1.63;1.30;;;;;;;;;;4215071;28;20048;-36
2022/03/18 02:29:11;;;;;;;2.10;1.45;;;;;;;;;;4214024;28;20048;-36
2022/03/18 02:31:12;;;;;;;2.08;1.33;;;;;;;;;;4215127;28;20102;-36
2022/03/18 02:33:14;;;;;;;1.92;1.38;;;;;;;;;;4214624;28;20097;-36
2022/03/18 02:35:14;;;;;;;1.30;1.20;;;;;;;;;;4214837;28;20441;-37
2022/03/18 02:37:15;;;;;;;2.22;1.40;;;;;;;;;;4214607;28;20098;-36
2022/03/18 02:39:16;;;;;;;1.45;1.15;;;;;;;;;;4214806;28;20084;-36
2022/03/18 02:41:17;;;;;;;1.67;1.42;;;;;;;;;;4214750;28;20139;-36
2022/03/18 02:43:18;;;;;;;1.88;1.17;;;;;;;;;;4214525;28;20450;-36
2022/03/18 02:45:19;;;;;;;1.77;1.30;;;;;;;;;;4214665;28;20127;-36
2022/03/18 02:47:20;;;;;;;2.40;1.27;;;;;;;;;;4214132;28;20048;-36
2022/03/18 02:49:21;;;;;;;1.48;1.10;;;;;;;;;;4214583;28;20412;-36
2022/03/18 02:51:22;;;;;;;1.35;1.05;;;;;;;;;;4214542;28;20055;-37
2022/03/18 02:53:23;;;;;;;2.15;1.45;;;;;;;;;;4214693;28;20063;-36
2022/03/18 02:55:24;;;;;;;2.30;1.50;;;;;;;;;;4214666;28;20448;-36
2022/03/18 02:57:25;;;;;;;1.65;1.20;;;;;;;;;;4214311;28;20128;-37
2022/03/18 02:59:26;;;;;;;1.60;1.42;;;;;;;;;;4214362;28;20132;-37
2022/03/18 03:01:28;;;;;;;1.90;1.15;;;;;;;;;;4214381;28;20056;-37
2022/03/18 03:03:29;;;;;;;1.45;1.35;;;;;;;;;;4214166;28;20113;-37
2022/03/18 03:08:01;;;;;;;1.52;1.30;;;;;;;;;;4214324;28;20457;-37
2022/03/18 03:10:02;;;;;;;1.48;1.25;;;;;;;;;;4214124;28;20052;-37
2022/03/18 03:12:04;;;;;;;1.85;1.60;;;;;;;;;;4214113;28;20059;-37
2022/03/18 03:14:05;;;;;;;1.55;1.38;;;;;;;;;;4214250;28;20052;-37
2022/03/18 03:16:06;;;;;;;1.38;1.17;;;;;;;;;;4214207;28;20069;-37
2022/03/18 03:18:07;;;;;;;2.28;1.42;;;;;;;;;;4213722;28;20425;-36
2022/03/18 03:20:08;;;;;;;1.50;1.20;;;;;;;;;;4214135;28;20480;-37
2022/03/18 03:22:09;;;;;;;2.17;1.40;;;;;;;;;;4213938;28;20376;-37
2022/03/18 03:24:10;;;;;;;2.05;1.30;;;;;;;;;;4214059;28;20086;-37
2022/03/18 03:26:11;;;;;;;1.55;1.30;;;;;;;;;;4213928;28;20419;-36
2022/03/18 03:28:12;;;;;;;2.70;1.30;;;;;;;;;;4214110;28;20101;-37
2022/03/18 03:30:13;;;;;;;2.45;1.40;;;;;;;;;;4214106;28;20446;-36
2022/03/18 03:32:15;;;;;;;1.88;1.42;;;;;;;;;;4212935;28;20094;-37
2022/03/18 03:34:16;;;;;;;1.52;1.15;;;;;;;;;;4214201;28;20052;-36
2022/03/18 03:36:17;;;;;;;1.88;1.52;;;;;;;;;;4213934;28;20488;-36
2022/03/18 03:38:20;;;;;;;1.80;1.40;;;;;;;;;;4213575;28;20055;-36
2022/03/18 03:40:21;;;;;;;1.90;1.52;;;;;;;;;;4213690;28;20450;-37
2022/03/18 03:42:22;;;;;;;2.03;1.45;;;;;;;;;;4213905;28;20044;-36
2022/03/18 03:44:23;;;;;;;1.65;1.38;;;;;;;;;;4213718;28;20048;-37
2022/03/18 03:46:24;;;;;;;1.90;1.52;;;;;;;;;;4213670;28;20125;-37
2022/03/18 03:48:25;;;;;;;1.77;1.45;;;;;;;;;;4213101;28;20062;-37
2022/03/18 03:50:27;;;;;;;1.70;1.33;;;;;;;;;;4213685;28;20090;-37
2022/03/18 03:52:28;;;;;;;1.55;1.20;;;;;;;;;;4213769;28;20052;-37
2022/03/18 03:54:29;;;;;;;1.65;1.38;;;;;;;;;;4213561;28;20056;-36
2022/03/18 03:56:30;;;;;;;1.90;1.13;;;;;;;;;;4213542;28;20083;-37
2022/03/18 03:58:31;;;;;;;1.40;1.08;;;;;;;;;;4213389;28;20123;-37
2022/03/18 04:00:32;;;;;;;2.13;1.35;;;;;;;;;;4212405;28;20097;-36
2022/03/18 04:02:33;;;;;;;1.95;1.40;;;;;;;;;;4213222;28;20046;-36
2022/03/18 04:04:34;;;;;;;1.83;1.55;;;;;;;;;;4212215;28;20048;-36
2022/03/18 04:06:34;;;;;;;1.85;1.60;;;;;;;;;;4213560;28;20525;-37
2022/03/18 04:08:36;;;;;;;1.77;1.48;;;;;;;;;;4213160;28;20094;-36
2022/03/18 04:10:42;;;;;;;1.70;1.35;;;;;;;;;;4213180;28;20056;-37
2022/03/18 04:12:43;;;;;;;1.58;1.40;;;;;;;;;;4213536;28;20082;-37
2022/03/18 04:14:44;;;;;;;1.92;1.40;;;;;;;;;;4213546;28;20091;-36
2022/03/18 04:16:44;;;;;;;1.40;1.30;;;;;;;;;;4213107;28;20051;-37
2022/03/18 04:18:45;;;;;;;2.08;1.50;;;;;;;;;;4212062;28;20563;-36
2022/03/18 04:20:46;;;;;;;2.00;1.23;;;;;;;;;;4213250;28;20108;-37
2022/03/18 04:22:47;;;;;;;1.80;1.42;;;;;;;;;;4213054;28;20083;-37
2022/03/18 04:24:48;;;;;;;1.33;1.10;;;;;;;;;;4213007;28;20460;-37
2022/03/18 04:26:49;;;;;;;2.33;1.50;;;;;;;;;;4212050;28;20066;-37
2022/03/18 04:28:50;;;;;;;1.55;1.40;;;;;;;;;;4213094;28;20048;-36
2022/03/18 04:30:51;;;;;;;1.92;1.50;;;;;;;;;;4212960;28;20059;-36
2022/03/18 04:32:52;;;;;;;2.55;1.63;;;;;;;;;;4212762;28;20112;-37
2022/03/18 04:34:52;;;;;;;1.52;1.35;;;;;;;;;;4213063;28;20078;-37
2022/03/18 04:36:53;;;;;;;1.73;1.20;;;;;;;;;;4213130;28;20110;-37
2022/03/18 04:38:54;;;;;;;2.03;1.38;;;;;;;;;;4213103;28;20581;-37
2022/03/18 04:40:55;;;;;;;1.63;1.17;;;;;;;;;;4211942;28;20084;-37
2022/03/18 04:42:56;;;;;;;1.55;1.30;;;;;;;;;;4213033;28;20089;-37
2022/03/18 04:44:57;;;;;;;3.30;1.90;;;;;;;;;;4212300;28;20416;-38
2022/03/18 04:46:57;;;;;;;1.50;1.35;;;;;;;;;;4212769;28;20075;-36
2022/03/18 04:48:59;;;;;;;1.77;1.23;;;;;;;;;;4213124;28;20501;-37
2022/03/18 04:50:59;;;;;;;2.00;1.80;;;;;;;;;;4212881;28;20047;-37
2022/03/18 04:53:00;;;;;;;1.85;1.50;;;;;;;;;;4212766;28;20188;-37
2022/03/18 04:55:02;;;;;;;1.42;1.23;;;;;;;;;;4212785;28;20507;-37
2022/03/18 04:57:15;;;;;;;2.20;1.70;;;;;;;;;;4212813;28;20607;-37
2022/03/18 04:59:18;;;;;;;1.70;1.50;;;;;;;;;;4212767;28;20044;-36
2022/03/18 05:01:20;;;;;;;1.42;1.30;;;;;;;;;;4212888;28;20056;-37
2022/03/18 05:03:21;;;;;;;1.80;1.30;;;;;;;;;;4211113;28;20048;-37
2022/03/18 05:05:22;;;;;;;2.55;1.48;;;;;;;;;;4211570;28;20044;-36
2022/03/18 05:07:24;;;;;;;2.33;1.60;;;;;;;;;;4212849;28;20048;-36
2022/03/18 05:09:26;;;;;;;2.60;1.67;;;;;;;;;;4212955;28;20051;-36
2022/03/18 05:11:27;;;;;;;2.28;1.63;;;;;;;;;;4212601;28;20137;-37
2022/03/18 05:13:29;;;;;;;1.77;1.58;;;;;;;;;;4212556;28;20067;-37
2022/03/18 05:15:32;;;;;;;2.13;1.70;;;;;;;;;;4212791;28;20097;-36
2022/03/18 05:17:32;;;;;;;1.95;1.75;;;;;;;;;;4212028;28;20052;-37
2022/03/18 05:19:34;;;;;;;1.80;1.42;;;;;;;;;;4212732;28;20451;-37
2022/03/18 05:21:35;;;;;;;2.22;1.70;;;;;;;;;;4212575;28;20054;-37
2022/03/18 05:23:37;;;;;;;2.65;1.70;;;;;;;;;;4212579;28;20044;-37
2022/03/18 05:25:40;;;;;;;2.55;1.67;;;;;;;;;;4212920;28;20048;-37
2022/03/18 05:27:43;;;;;;;1.90;1.75;;;;;;;;;;4212581;28;20048;-37
2022/03/18 05:29:44;;;;;;;1.77;1.58;;;;;;;;;;4212795;28;20078;-37
2022/03/18 05:31:46;;;;;;;1.70;1.58;;;;;;;;;;4210938;28;20052;-37
2022/03/18 05:33:47;;;;;;;1.60;1.45;;;;;;;;;;4212807;28;20097;-37
2022/03/18 05:35:47;;;;;;;1.50;1.40;;;;;;;;;;4212796;28;20048;-37
2022/03/18 05:37:48;;;;;;;1.50;1.40;;;;;;;;;;4212397;28;20056;-37
2022/03/18 05:39:51;;;;;;;2.03;1.70;;;;;;;;;;4212431;28;20048;-37
2022/03/18 05:41:52;;;;;;;2.05;1.60;;;;;;;;;;4212599;28;20124;-37
2022/03/18 05:43:53;;;;;;;2.05;1.67;;;;;;;;;;4212621;28;20154;-37
2022/03/18 05:45:54;;;;;;;2.58;1.77;;;;;;;;;;4212382;28;20051;-37
2022/03/18 05:47:54;;;;;;;2.08;1.70;;;;;;;;;;4211967;28;20088;-37
2022/03/18 05:49:57;;;;;;;2.20;2.00;;;;;;;;;;4211116;28;20059;-37
2022/03/18 05:51:58;;;;;;;1.90;1.60;;;;;;;;;;4212171;28;20052;-37
2022/03/18 05:53:59;;;;;;;2.53;1.73;;;;;;;;;;4212339;28;20079;-36
2022/03/18 05:58:21;;;;;;;1.92;1.50;;;;;;;;;;4215505;28;20044;-37
2022/03/18 06:00:21;;;;;;;1.83;1.67;;;;;;;;;;4213163;28;20097;-38
2022/03/18 06:02:23;;;;;;;2.83;1.73;;;;;;;;;;4213205;28;20052;-37
2022/03/18 06:04:24;;;;;;;2.17;1.73;;;;;;;;;;4213524;28;20056;-37
2022/03/18 06:06:26;;;;;;;1.98;1.50;;;;;;;;;;4213635;28;20930;-37
2022/03/18 06:13:06;;;;;;;2.80;2.05;;;;;;;;;;4212708;28;20056;-37
2022/03/18 06:15:07;;;;;;;3.50;2.13;;;;;;;;;;4213189;28;20044;-37
2022/03/18 06:17:08;;;;;;;2.35;1.83;;;;;;;;;;4212380;28;20102;-37
2022/03/18 06:19:10;;;;;;;2.42;1.95;;;;;;;;;;4212827;28;20408;-37
2022/03/18 06:21:15;;;;;;;2.42;2.17;;;;;;;;;;4212932;28;20380;-37
2022/03/18 06:23:15;;;;;;;3.05;2.20;;;;;;;;;;4212770;28;20051;-36
2022/03/18 06:25:16;;;;;;;2.75;2.20;;;;;;;;;;4212730;28;20081;-37
2022/03/18 06:27:17;;;;;;;2.80;2.17;;;;;;;;;;4212981;28;20048;-37
2022/03/18 06:29:19;;;;;;;2.67;2.33;;;;;;;;;;4211562;28;20487;-36
2022/03/18 06:31:20;;;;;;;2.50;2.05;;;;;;;;;;4213133;28;20047;-37
2022/03/18 06:33:21;;;;;;;2.10;1.90;;;;;;;;;;4212595;28;20453;-36
2022/03/18 06:35:22;;;;;;;2.65;2.25;;;;;;;;;;4212961;28;20114;-37
2022/03/18 06:37:23;;;;;;;2.42;1.98;;;;;;;;;;4212363;28;20048;-37
2022/03/18 06:39:25;;;;;;;2.22;1.92;;;;;;;;;;4212618;28;20116;-37
2022/03/18 06:41:26;;;;;;;1.67;1.55;;;;;;;;;;4211511;28;20048;-37
2022/03/18 06:43:27;;;;;;;3.00;2.03;;;;;;;;;;4212831;28;20052;-37
2022/03/18 06:45:28;;;;;;;2.58;2.00;;;;;;;;;;4212954;28;20478;-36
2022/03/18 06:47:29;;;;;;;2.60;1.67;;;;;;;;;;4212409;28;20143;-37
2022/03/18 06:49:30;;;;;;;2.30;1.77;;;;;;;;;;4210982;28;20074;-37
2022/03/18 06:51:31;;;;;;;1.90;1.60;;;;;;;;;;4212969;28;20102;-36
2022/03/18 06:53:32;;;;;;;2.88;1.80;;;;;;;;;;4211134;28;20055;-37
2022/03/18 06:55:33;;;;;;;2.13;1.85;;;;;;;;;;4212450;28;20056;-37
2022/03/18 06:57:34;;;;;;;2.75;2.00;;;;;;;;;;4209694;28;20108;-37
2022/03/18 06:59:35;;;;;;;2.03;1.63;;;;;;;;;;4180803;28;20131;-37
2022/03/18 07:01:36;;;;;;;3.22;1.67;;;;;;;;;;4192296;28;20078;-37
2022/03/18 07:03:37;;;;;;;2.03;1.50;;;;;;;;;;4203563;28;20125;-36
2022/03/18 07:05:38;;;;;;;2.08;1.60;;;;;;;;;;4187420;28;20086;-37
2022/03/18 07:07:40;;;;;;;2.55;1.50;;;;;;;;;;4204489;28;20048;-36
2022/03/18 07:09:41;;;;;;;2.47;1.50;;;;;;;;;;4200649;28;20567;-37
2022/03/18 07:11:42;;;;;;;1.42;1.33;;;;;;;;;;4193647;28;20052;-36
2022/03/18 07:13:43;;;;;;;1.92;1.50;;;;;;;;;;4193661;28;20093;-37
2022/03/18 07:15:44;;;;;;;1.95;1.42;;;;;;;;;;4197883;28;20506;-37
2022/03/18 07:18:00;;;;;;;2.03;1.30;;;;;;;;;;4195454;28;20143;-37
2022/03/18 07:20:01;;;;;;;1.75;1.17;;;;;;;;;;4197574;28;20598;-37
2022/03/18 07:22:02;;;;;;;2.95;1.55;;;;;;;;;;4196565;28;20063;-37
2022/03/18 07:24:03;;;;;;;1.63;1.30;;;;;;;;;;4203756;28;20086;-37
2022/03/18 07:26:03;;;;;;;1.77;1.30;;;;;;;;;;4202747;28;20076;-37
2022/03/18 07:28:05;;;;;;;1.38;1.20;;;;;;;;;;4200882;28;20105;-36
2022/03/18 07:30:06;;;;;;;1.95;1.50;;;;;;;;;;4203700;28;20184;-37
2022/03/18 07:32:07;;;;;;;3.50;1.15;;;;;;;;;;4197168;28;20047;-37
2022/03/18 07:34:07;;;;;;;2.35;1.17;;;;;;;;;;4204316;28;20091;-36
2022/03/18 07:36:08;;;;;;;3.30;1.00;;;;;;;;;;4202252;28;20113;-37
2022/03/18 07:38:09;;;;;;;3.80;1.38;;;;;;;;;;4201710;28;20044;-36
2022/03/18 07:40:11;;;;;;;1.33;1.10;;;;;;;;;;4205296;28;20138;-37
2022/03/18 07:42:13;;;;;;;2.83;1.52;;;;;;;;;;4201467;28;20125;-37
2022/03/18 07:44:14;;;;;;;4.25;1.10;;;;;;;;;;4197761;28;20403;-37
2022/03/18 07:46:16;;;;;;;1.83;0.85;;;;;;;;;;4201602;28;20101;-37
2022/03/18 07:48:17;;;;;;;4.72;0.90;;;;;;;;;;4197943;28;20048;-36
2022/03/18 07:50:21;;;;;;;2.17;1.15;;;;;;;;;;4200566;28;20059;-37
2022/03/18 07:52:22;;;;;;;2.70;1.10;;;;;;;;;;4199874;28;20062;-37
2022/03/18 07:54:23;;;;;;;1.73;1.10;;;;;;;;;;4201513;28;20541;-37
2022/03/18 07:56:24;;;;;;;1.30;0.70;;;;;;;;;;4202029;28;20048;-36
2022/03/18 07:58:25;;;;;;;2.40;1.38;;;;;;;;;;4199147;28;20397;-37
2022/03/18 08:00:26;;;;;;;2.03;1.25;;;;;;;;;;4198997;28;20046;-37
2022/03/18 08:02:27;;;;;;;2.72;0.85;;;;;;;;;;4203845;28;20544;-37
2022/03/18 08:04:28;;;;;;;3.90;0.95;;;;;;;;;;4196646;28;20146;-37
2022/03/18 08:06:29;;;;;;;4.82;1.20;;;;;;;;;;4201516;28;20076;-37
2022/03/18 08:08:31;;;;;;;2.28;0.73;;;;;;;;;;4197580;28;20691;-37
2022/03/18 08:10:32;;;;;;;2.97;0.90;;;;;;;;;;4199350;28;20423;-37
2022/03/18 08:12:33;;;;;;;4.57;1.38;;;;;;;;;;4199322;28;20048;-38
2022/03/18 08:14:34;;;;;;;1.75;1.25;;;;;;;;;;4196629;28;20063;-38
2022/03/18 08:16:35;;;;;;;3.67;0.75;;;;;;;;;;4201184;28;20076;-37
2022/03/18 08:18:36;;;;;;;0.82;0.57;;;;;;;;;;4195751;28;20575;-38
2022/03/18 08:20:40;;;;;;;1.60;0.70;;;;;;;;;;4196297;28;20044;-36
2022/03/18 08:22:41;;;;;;;4.10;0.95;;;;;;;;;;4204168;28;20055;-37
2022/03/18 08:24:42;;;;;;;2.28;0.98;;;;;;;;;;4203297;28;20170;-37
2022/03/18 08:26:43;;;;;;;1.60;0.90;;;;;;;;;;4199777;28;20043;-37
2022/03/18 08:28:44;;;;;;;2.50;0.80;;;;;;;;;;4200014;28;20052;-37
2022/03/18 08:30:45;;;;;;;1.00;0.68;;;;;;;;;;4198577;28;20051;-37
2022/03/18 08:32:46;;;;;;;2.28;0.80;;;;;;;;;;4200793;28;20098;-37
2022/03/18 08:34:47;;;;;;;0.80;0.50;;;;;;;;;;4197477;28;20396;-38
2022/03/18 08:36:48;;;;;;;3.53;0.50;;;;;;;;;;4194775;28;20132;-37
2022/03/18 08:38:48;;;;;;;4.47;0.70;;;;;;;;;;4196010;28;20059;-35
2022/03/18 08:40:49;;;;;;;1.92;0.75;;;;;;;;;;4200436;28;20480;-37
2022/03/18 08:42:51;;;;;;;1.17;0.70;;;;;;;;;;4202043;28;20449;-36
2022/03/18 08:44:52;;;;;;;1.88;0.60;;;;;;;;;;4199751;28;20259;-36
2022/03/18 08:46:52;;;;;;;2.33;0.57;;;;;;;;;;4198446;28;20734;-36
2022/03/18 08:48:54;;;;;;;4.72;1.00;;;;;;;;;;4198253;28;20632;-36
2022/03/18 08:50:55;;;;;;;2.53;0.63;;;;;;;;;;4203170;28;20059;-36
2022/03/18 08:52:56;;;;;;;1.42;0.60;;;;;;;;;;4199326;28;20062;-36
2022/03/18 08:54:58;;;;;;;1.15;0.57;;;;;;;;;;4199979;28;20056;-36
2022/03/18 08:56:58;;;;;;;2.40;0.45;;;;;;;;;;4201033;28;20056;-36
2022/03/18 08:59:02;;;;;;;1.13;0.60;;;;;;;;;;4205889;28;20206;-36
2022/03/18 09:01:03;;;;;;;1.33;0.52;;;;;;;;;;4198192;28;20102;-36
2022/03/18 09:03:04;;;;;;;1.98;0.65;;;;;;;;;;4203607;28;20052;-36
2022/03/18 09:05:07;;;;;;;1.75;0.63;;;;;;;;;;4202392;28;20063;-36
2022/03/18 09:07:08;;;;;;;3.35;0.70;;;;;;;;;;4199674;28;20776;-36
2022/03/18 09:09:09;;;;;;;1.08;0.57;;;;;;;;;;4199405;28;20193;-36
2022/03/18 09:11:10;;;;;;;2.22;0.50;;;;;;;;;;4202227;28;20144;-36
2022/03/18 09:13:11;;;;;;;1.08;0.40;;;;;;;;;;4198687;28;20404;-36
2022/03/18 09:15:12;;;;;;;1.35;0.45;;;;;;;;;;4198184;28;20112;-37
2022/03/18 09:17:13;;;;;;;1.02;0.40;;;;;;;;;;4198192;28;20097;-38
2022/03/18 09:19:14;;;;;;;0.55;0.40;;;;;;;;;;4200622;28;20553;-36
2022/03/18 09:21:15;;;;;;;1.58;0.50;;;;;;;;;;4204579;28;20080;-36
2022/03/18 09:23:16;;;;;;;2.97;0.45;;;;;;;;;;4202185;28;20098;-36
2022/03/18 09:25:17;;;;;;;2.10;0.50;;;;;;;;;;4201664;28;20069;-36
2022/03/18 09:27:17;;;;;;;2.05;0.60;;;;;;;;;;4202281;28;20104;-37
2022/03/18 09:29:24;;;;;;;0.55;0.30;;;;;;;;;;4202172;28;20140;-37
2022/03/18 09:31:25;;;;;;;0.70;0.32;;;;;;;;;;4202771;28;20525;-36
2022/03/18 09:33:27;;;;;;;1.85;0.47;;;;;;;;;;4205114;28;20056;-36
2022/03/18 09:35:27;;;;;;;0.30;0.20;;;;;;;;;;4204467;28;20155;-37
2022/03/18 09:37:28;;;;;;;0.65;0.40;;;;;;;;;;4207684;28;20662;-36
2022/03/18 09:39:29;;;;;;;2.05;0.50;;;;;;;;;;4204018;28;20487;-36
2022/03/18 09:41:30;;;;;;;1.50;0.30;;;;;;;;;;4201033;28;20457;-37
2022/03/18 09:43:36;;;;;;;1.20;0.30;;;;;;;;;;4205778;28;20201;-39
2022/03/18 09:45:38;;;;;;;1.33;0.50;;;;;;;;;;4203667;28;20056;-36
2022/03/18 09:47:39;;;;;;;1.30;0.35;;;;;;;;;;4202765;28;20468;-36
2022/03/18 09:49:42;;;;;;;1.40;0.38;;;;;;;;;;4201029;28;20062;-36
2022/03/18 09:51:44;;;;;;;1.50;0.50;;;;;;;;;;4203394;28;20577;-37
2022/03/18 09:53:59;;;;;;;0.60;0.22;;;;;;;;;;4198136;28;20057;-38
2022/03/18 09:56:01;;;;;;;0.60;0.30;;;;;;;;;;4199836;28;20067;-37
2022/03/18 09:58:02;;;;;;;2.08;0.40;;;;;;;;;;4200528;28;20597;-37
2022/03/18 10:00:03;;;;;;;1.98;0.60;;;;;;;;;;4203819;28;20059;-37
2022/03/18 10:02:12;;;;;;;;;;;;;;;;;;4204645;28;20052;-37
2022/03/18 10:04:14;;;;;;;1.15;0.57;;;;;;;;;;4207918;28;20025;-37
2022/03/18 10:06:15;;;;;;;0.80;0.45;;;;;;;;;;4205214;28;20483;-37
2022/03/18 10:08:17;;;;;;;2.38;0.40;;;;;;;;;;4207346;28;20127;-37
2022/03/18 10:10:19;;;;;;;2.78;0.60;;;;;;;;;;4202601;28;20048;-37
2022/03/18 10:12:27;;;;;;;2.88;0.40;;;;;;;;;;4210589;28;20055;-38
2022/03/18 10:14:28;;;;;;;0.85;0.40;;;;;;;;;;4205322;28;20109;-38
2022/03/18 10:16:48;;;;;;;3.35;0.43;;;;;;;;;;4205688;28;20102;-38
2022/03/18 10:18:49;;;;;;;1.85;0.50;;;;;;;;;;4202576;28;20055;-37
2022/03/18 10:20:50;;;;;;;0.85;0.45;;;;;;;;;;4204698;28;20136;-36
2022/03/18 10:22:52;;;;;;;0.98;0.43;;;;;;;;;;4205549;28;20056;-36
2022/03/18 10:24:53;;;;;;;1.35;0.40;;;;;;;;;;4204233;28;20040;-36
2022/03/18 10:27:17;;;;;;;1.75;0.30;;;;;;;;;;4204518;28;20044;-37
2022/03/18 10:29:18;;;;;;;3.90;0.40;;;;;;;;;;4206490;28;20059;-37
2022/03/18 10:31:21;;;;;;;1.15;0.40;;;;;;;;;;4205756;28;20056;-37
2022/03/18 10:37:04;;;;;;;1.60;0.40;;;;;;;;;;4205247;28;20113;-37
2022/03/18 10:38:41;;;;;;;1.20;0.65;;;;;;;;;;4203312;28;20113;-38
2022/03/18 10:40:42;;;;;;;1.98;0.40;;;;;;;;;;4204836;28;20048;-37
2022/03/18 10:43:20;;;;;;;1.83;0.50;;;;;;;;;;4200870;28;20448;-37
2022/03/18 10:45:21;;;;;;;1.02;0.30;;;;;;;;;;4173962;28;20045;-36
2022/03/18 10:47:32;;;;;;;0.88;0.40;;;;;;;;;;4201680;28;20085;-37
2022/03/18 10:49:32;;;;;;;0.95;0.32;;;;;;;;;;4213791;28;20479;-39
2022/03/18 10:51:34;;;;;;;1.55;0.40;;;;;;;;;;4213451;28;20130;-37
2022/03/18 10:53:35;;;;;;;0.75;0.55;;;;;;;;;;4211895;28;20459;-36
2022/03/18 10:55:38;;;;;;;1.02;0.40;;;;;;;;;;4212298;28;20093;-36
2022/03/18 10:57:39;;;;;;;0.95;0.35;;;;;;;;;;4210659;28;20048;-37
2022/03/18 10:59:40;;;;;;;1.48;0.47;;;;;;;;;;4208002;28;20055;-36
2022/03/18 11:01:41;;;;;;;1.25;0.43;;;;;;;;;;4211615;28;20178;-37
2022/03/18 11:03:45;;;;;;;0.65;0.32;;;;;;;;;;4205100;28;20049;-36
2022/03/18 11:05:47;;;;;;;1.17;0.60;;;;;;;;;;4202854;28;20049;-36
2022/03/18 11:07:51;;;;;;;0.82;0.40;;;;;;;;;;4207248;28;20044;-36
2022/03/18 11:12:13;;;;;;;2.00;0.55;;;;;;;;;;4203604;28;20044;-37
2022/03/18 11:14:14;;;;;;;1.17;0.40;;;;;;;;;;4203133;28;20052;-36
2022/03/18 11:16:25;;;;;;;1.35;0.45;;;;;;;;;;4203883;28;20059;-36
2022/03/18 11:18:28;;;;;;;;;;;;;;;;;;4197967;28;20514;-35
2022/03/18 11:20:29;;;;;;;1.70;0.45;;;;;;;;;;4210022;28;19916;-35
2022/03/18 11:22:32;;;;;;;2.58;0.60;;;;;;;;;;4206304;28;20056;-37
2022/03/18 11:24:33;;;;;;;1.33;0.52;;;;;;;;;;4200582;28;20997;-37
2022/03/18 11:26:35;;;;;;;1.55;0.60;;;;;;;;;;4204152;28;20071;-36
2022/03/18 11:28:36;;;;;;;1.55;0.45;;;;;;;;;;4198678;28;20182;-37
2022/03/18 11:30:39;;;;;;;0.98;0.43;;;;;;;;;;4202222;28;20693;-38
2022/03/18 11:32:41;;;;;;;1.88;0.50;;;;;;;;;;4204211;28;20623;-37
2022/03/18 11:34:45;;;;;;;0.90;0.40;;;;;;;;;;4200564;28;20040;-37
2022/03/18 11:36:47;;;;;;;1.20;0.50;;;;;;;;;;4201310;28;20067;-36
2022/03/18 11:38:48;;;;;;;1.73;0.40;;;;;;;;;;4198584;28;20372;-37
2022/03/18 11:40:53;;;;;;;0.95;0.30;;;;;;;;;;4206915;28;20051;-37
2022/03/18 11:42:54;;;;;;;1.38;0.43;;;;;;;;;;4198164;28;20098;-37
2022/03/18 11:44:56;;;;;;;2.08;0.38;;;;;;;;;;4199397;28;20109;-37
2022/03/18 11:47:17;;;;;;;0.80;0.50;;;;;;;;;;4204824;28;20056;-37
2022/03/18 11:49:30;;;;;;;1.10;0.40;;;;;;;;;;4200640;28;20503;-37
2022/03/18 11:51:32;;;;;;;0.77;0.35;;;;;;;;;;4197920;28;20523;-35
2022/03/18 11:53:44;;;;;;;1.08;0.40;;;;;;;;;;4204208;28;20044;-35
2022/03/18 11:55:45;;;;;;;0.98;0.40;;;;;;;;;;4207604;28;20052;-35
2022/03/18 11:57:46;;;;;;;0.80;0.40;;;;;;;;;;4208119;28;20429;-35
2022/03/18 11:59:50;;;;;;;1.30;0.52;;;;;;;;;;4199086;28;20102;-36
2022/03/18 12:01:52;;;;;;;0.95;0.32;;;;;;;;;;4198922;28;20110;-36
2022/03/18 12:03:54;;;;;;;1.13;0.40;;;;;;;;;;4200073;28;20098;-35
2022/03/18 12:05:57;;;;;;;1.85;0.52;;;;;;;;;;4207582;28;20464;-36
2022/03/18 12:07:59;;;;;;;1.30;0.40;;;;;;;;;;4200192;28;20048;-36
2022/03/18 12:10:04;;;;;;;0.70;0.40;;;;;;;;;;4201622;28;20052;-35
2022/03/18 12:12:14;;;;;;;0.77;0.32;;;;;;;;;;4203306;28;20060;-37
2022/03/18 12:14:15;;;;;;;0.93;0.30;;;;;;;;;;4199890;28;20056;-37
2022/03/18 12:16:20;;;;;;;0.68;0.30;;;;;;;;;;4198544;28;20563;-37
2022/03/18 12:18:28;;;;;;;0.63;0.40;;;;;;;;;;4203723;28;20564;-37
2022/03/18 12:20:30;;;;;;;1.55;0.50;;;;;;;;;;4195632;28;20118;-38
2022/03/18 12:22:36;;;;;;;1.08;0.50;;;;;;;;;;4202929;28;20048;-38
2022/03/18 12:24:39;;;;;;;1.20;0.47;;;;;;;;;;4198520;28;20052;-37
2022/03/18 12:26:40;;;;;;;0.50;0.40;;;;;;;;;;4199667;28;20103;-37
2022/03/18 12:28:49;;;;;;;2.85;0.55;;;;;;;;;;4199090;28;20048;-38
2022/03/18 12:30:50;;;;;;;0.80;0.30;;;;;;;;;;4199756;28;20036;-37